Time;durP1;ratioP1;P1;durP2;ratioP2;P2;SDS_P1;SDS_P2;PMS_P1;PMS_P2;Temp;Humidity;BMP_temperature;BMP_pressure;BME280_temperature;BME280_humidity;BME280_pressure;Samples;Min_cycle;Max_cycle;Signal;HPM_P1;HPM_P2
2021/09/06 00:01:09;;;;;;;29.27;17.63;;;14.90;95.00;;;;;;5062274;28;20024;-65
2021/09/06 00:03:35;;;;;;;26.60;17.67;;;14.90;95.20;;;;;;5061125;28;20352;-65
2021/09/06 00:06:00;;;;;;;28.77;17.27;;;14.90;95.10;;;;;;5060809;28;20074;-65
2021/09/06 00:08:27;;;;;;;29.30;17.30;;;14.80;95.20;;;;;;5063189;28;20468;-65
2021/09/06 00:11:07;;;;;;;27.45;17.25;;;14.90;95.30;;;;;;5062873;28;20126;-65
2021/09/06 00:13:34;;;;;;;26.15;16.77;;;14.80;95.20;;;;;;5062347;28;20398;-65
2021/09/06 00:16:00;;;;;;;27.77;17.20;;;14.80;95.20;;;;;;5061783;28;20021;-65
2021/09/06 00:18:26;;;;;;;29.50;17.42;;;14.80;95.20;;;;;;5061277;28;20032;-65
2021/09/06 00:20:53;;;;;;;26.92;17.45;;;14.70;95.20;;;;;;5061089;28;20481;-65
2021/09/06 00:23:19;;;;;;;27.98;17.30;;;14.70;95.40;;;;;;5063279;28;20024;-65
2021/09/06 00:25:45;;;;;;;25.67;17.20;;;14.70;95.30;;;;;;5060919;28;20028;-65
2021/09/06 00:28:11;;;;;;;28.33;16.48;;;14.70;95.40;;;;;;5060786;28;20047;-65
2021/09/06 00:30:38;;;;;;;27.77;16.75;;;14.70;95.30;;;;;;5061409;28;20032;-65
2021/09/06 00:33:04;;;;;;;28.58;16.42;;;14.70;95.40;;;;;;5060653;28;20410;-65
2021/09/06 00:35:30;;;;;;;28.45;16.80;;;14.70;95.30;;;;;;5061993;28;20483;-65
2021/09/06 00:37:56;;;;;;;26.90;16.92;;;14.60;95.40;;;;;;5061274;28;20029;-65
2021/09/06 00:40:22;;;;;;;27.17;16.77;;;14.60;95.40;;;;;;5060832;28;20032;-66
2021/09/06 00:42:48;;;;;;;26.02;16.25;;;14.60;95.40;;;;;;5059064;28;20074;-65
2021/09/06 00:45:14;;;;;;;23.92;15.50;;;14.60;95.50;;;;;;5062202;28;20071;-65
2021/09/06 00:47:41;;;;;;;29.42;16.33;;;14.60;95.50;;;;;;5062554;28;20029;-65
2021/09/06 00:50:12;;;;;;;26.63;15.95;;;14.60;95.40;;;;;;5061779;28;20031;-65
2021/09/06 00:52:40;;;;;;;27.23;15.63;;;14.50;95.40;;;;;;5062184;28;20377;-65
2021/09/06 00:55:07;;;;;;;28.45;17.17;;;14.50;95.40;;;;;;5061602;28;20169;-67
2021/09/06 00:57:33;;;;;;;30.52;17.58;;;14.50;95.70;;;;;;5059785;28;20509;-65
2021/09/06 00:59:59;;;;;;;27.52;16.40;;;14.50;95.50;;;;;;5060570;28;20549;-66
2021/09/06 01:02:25;;;;;;;29.80;17.38;;;14.50;95.60;;;;;;5061793;28;20052;-65
2021/09/06 01:04:51;;;;;;;26.70;15.95;;;14.50;95.50;;;;;;5061149;28;20031;-65
2021/09/06 01:07:17;;;;;;;27.77;16.85;;;14.50;95.50;;;;;;5060932;28;20558;-65
2021/09/06 01:09:43;;;;;;;29.83;17.25;;;14.40;95.50;;;;;;5061722;28;20033;-65
2021/09/06 01:12:09;;;;;;;30.45;16.52;;;14.50;95.50;;;;;;5060847;28;20028;-65
2021/09/06 01:14:35;;;;;;;25.77;16.00;;;14.40;95.50;;;;;;5060374;28;20527;-65
2021/09/06 01:17:01;;;;;;;27.48;15.93;;;14.40;95.60;;;;;;5061608;28;20029;-66
2021/09/06 01:19:27;;;;;;;28.55;16.67;;;14.40;95.60;;;;;;5060955;28;20032;-65
2021/09/06 01:21:53;;;;;;;25.40;15.35;;;14.40;95.70;;;;;;5061081;28;20024;-66
2021/09/06 01:24:19;;;;;;;25.73;15.75;;;14.30;95.50;;;;;;5062441;28;20075;-66
2021/09/06 01:26:48;;;;;;;24.15;15.55;;;14.30;95.50;;;;;;5061050;28;20639;-66
2021/09/06 01:29:14;;;;;;;25.08;16.33;;;14.30;95.50;;;;;;5059896;28;20482;-66
2021/09/06 01:31:41;;;;;;;33.47;16.73;;;14.30;95.60;;;;;;5059704;28;20032;-65
2021/09/06 01:34:08;;;;;;;28.17;16.73;;;14.30;95.60;;;;;;5060625;28;20036;-65
2021/09/06 01:36:35;;;;;;;28.88;16.35;;;14.30;95.70;;;;;;5058683;28;20447;-66
2021/09/06 01:39:00;;;;;;;28.92;14.90;;;14.30;95.70;;;;;;5062408;28;20031;-65
2021/09/06 01:41:26;;;;;;;26.13;15.95;;;14.30;95.70;;;;;;5060799;28;20096;-66
2021/09/06 01:43:52;;;;;;;26.23;16.38;;;14.20;95.60;;;;;;5059963;28;20024;-66
2021/09/06 01:46:18;;;;;;;28.20;16.38;;;14.20;95.70;;;;;;5058923;28;20086;-66
2021/09/06 01:48:43;;;;;;;29.55;16.05;;;14.20;95.60;;;;;;5059939;28;20032;-66
2021/09/06 01:51:09;;;;;;;27.88;16.33;;;14.20;95.60;;;;;;5060349;28;20596;-66
2021/09/06 01:53:35;;;;;;;27.33;15.48;;;14.20;95.70;;;;;;5061047;28;20090;-66
2021/09/06 01:56:00;;;;;;;29.33;16.48;;;14.10;95.70;;;;;;5060631;28;20094;-66
2021/09/06 01:58:26;;;;;;;27.63;14.60;;;14.10;95.70;;;;;;5059882;28;20568;-64
2021/09/06 02:00:52;;;;;;;26.98;15.77;;;14.10;95.70;;;;;;5060365;28;20410;-65
2021/09/06 02:03:18;;;;;;;25.40;15.85;;;14.10;95.70;;;;;;5059000;28;20029;-66
2021/09/06 02:05:43;;;;;;;28.33;16.73;;;14.10;95.70;;;;;;5059526;28;20033;-66
2021/09/06 02:08:09;;;;;;;26.35;15.93;;;14.10;95.90;;;;;;5060471;28;20050;-66
2021/09/06 02:10:35;;;;;;;29.50;15.85;;;14.10;95.90;;;;;;5058805;28;20386;-66
2021/09/06 02:13:01;;;;;;;24.77;15.80;;;14.10;95.90;;;;;;5060363;28;20025;-65
2021/09/06 02:15:26;;;;;;;25.17;15.32;;;14.00;95.90;;;;;;5061275;28;20064;-65
2021/09/06 02:17:52;;;;;;;30.48;15.48;;;14.00;96.00;;;;;;5061357;28;20144;-66
2021/09/06 02:20:17;;;;;;;24.08;14.65;;;14.00;96.00;;;;;;5061409;28;20033;-65
2021/09/06 02:22:43;;;;;;;26.98;15.70;;;14.00;95.90;;;;;;5059257;28;20456;-66
2021/09/06 02:25:09;;;;;;;22.70;14.32;;;14.00;95.90;;;;;;5060130;28;20024;-66
2021/09/06 02:27:35;;;;;;;25.05;16.23;;;14.00;95.80;;;;;;5060274;28;20028;-65
2021/09/06 02:30:02;;;;;;;23.67;14.52;;;14.00;95.90;;;;;;5060674;28;20044;-65
2021/09/06 02:32:28;;;;;;;26.83;15.43;;;14.00;95.90;;;;;;5059122;28;20024;-65
2021/09/06 02:34:53;;;;;;;24.30;14.93;;;14.00;96.00;;;;;;5060576;28;20065;-66
2021/09/06 02:37:19;;;;;;;24.10;14.77;;;14.00;96.00;;;;;;5059593;28;20029;-64
2021/09/06 02:39:45;;;;;;;26.17;14.55;;;13.90;96.00;;;;;;5060677;28;20064;-66
2021/09/06 02:42:10;;;;;;;26.88;16.45;;;13.90;96.00;;;;;;5059950;28;20024;-65
2021/09/06 02:44:36;;;;;;;24.35;15.30;;;13.80;95.90;;;;;;5062502;28;20036;-66
2021/09/06 02:47:03;;;;;;;26.98;15.43;;;13.90;95.90;;;;;;5063412;28;20056;-66
2021/09/06 02:49:28;;;;;;;25.83;15.85;;;13.90;96.00;;;;;;5059503;28;20093;-66
2021/09/06 02:51:54;;;;;;;29.30;14.50;;;13.80;95.90;;;;;;5060769;28;20025;-66
2021/09/06 02:54:20;;;;;;;24.92;15.00;;;13.80;95.90;;;;;;5061514;28;20040;-65
2021/09/06 02:56:46;;;;;;;25.48;15.73;;;13.80;96.00;;;;;;5062612;28;20531;-66
2021/09/06 02:59:11;;;;;;;26.00;15.32;;;13.80;96.00;;;;;;5060315;28;20025;-66
2021/09/06 03:01:37;;;;;;;24.50;14.60;;;13.70;96.00;;;;;;5060449;28;20441;-67
2021/09/06 03:04:03;;;;;;;23.33;14.77;;;13.70;96.00;;;;;;5064716;28;20528;-66
2021/09/06 03:06:29;;;;;;;23.77;14.40;;;13.70;96.00;;;;;;5064710;28;20028;-66
2021/09/06 03:08:55;;;;;;;26.15;14.98;;;13.70;96.00;;;;;;5063877;28;20508;-65
2021/09/06 03:11:24;;;;;;;24.67;14.98;;;13.70;96.00;;;;;;5061518;28;20047;-65
2021/09/06 03:13:51;;;;;;;27.15;16.13;;;13.70;96.00;;;;;;5064385;28;20028;-65
2021/09/06 03:16:17;;;;;;;24.75;14.60;;;13.70;96.10;;;;;;5064054;28;20029;-65
2021/09/06 03:18:42;;;;;;;24.55;14.40;;;13.70;96.00;;;;;;5063417;28;20021;-65
2021/09/06 03:21:08;;;;;;;25.60;14.55;;;13.60;96.00;;;;;;5063717;28;20510;-66
2021/09/06 03:23:34;;;;;;;22.85;14.32;;;13.60;96.10;;;;;;5062491;28;20048;-66
2021/09/06 03:25:59;;;;;;;24.13;14.32;;;13.60;96.00;;;;;;5063682;28;20063;-66
2021/09/06 03:28:25;;;;;;;21.75;14.45;;;13.60;96.00;;;;;;5063448;28;20031;-66
2021/09/06 03:30:51;;;;;;;25.05;14.98;;;13.60;96.10;;;;;;5083358;28;20067;-65
2021/09/06 03:33:16;;;;;;;26.38;15.32;;;13.60;96.10;;;;;;5062066;28;20032;-66
2021/09/06 03:35:42;;;;;;;23.58;14.48;;;13.60;96.10;;;;;;5062601;28;20059;-66
2021/09/06 03:38:12;;;;;;;27.60;14.27;;;13.50;96.20;;;;;;5062781;28;20083;-66
2021/09/06 03:40:37;;;;;;;25.30;14.55;;;13.50;96.20;;;;;;5062301;28;20028;-66
2021/09/06 03:43:04;;;;;;;25.83;14.75;;;13.50;96.20;;;;;;5063639;28;20029;-66
2021/09/06 03:45:30;;;;;;;23.40;14.57;;;13.50;96.20;;;;;;5064986;28;20559;-66
2021/09/06 03:47:56;;;;;;;24.17;14.65;;;13.50;96.30;;;;;;5062781;28;20095;-66
2021/09/06 03:50:22;;;;;;;25.20;14.65;;;13.50;96.30;;;;;;5064504;28;20052;-65
2021/09/06 03:52:47;;;;;;;26.02;15.63;;;13.40;96.20;;;;;;5063319;28;20033;-66
2021/09/06 03:55:13;;;;;;;24.50;14.05;;;13.40;96.30;;;;;;5063255;28;20654;-66
2021/09/06 03:57:39;;;;;;;26.88;14.70;;;13.40;96.30;;;;;;5061304;28;20054;-67
2021/09/06 04:00:06;;;;;;;22.13;13.40;;;13.40;96.30;;;;;;5062834;28;20394;-66
2021/09/06 04:02:32;;;;;;;25.40;14.93;;;13.40;96.30;;;;;;5062902;28;20027;-66
2021/09/06 04:04:59;;;;;;;25.45;15.23;;;13.40;96.30;;;;;;5062384;28;20032;-66
2021/09/06 04:07:25;;;;;;;24.00;14.35;;;13.40;96.40;;;;;;5068943;28;20025;-65
2021/09/06 04:09:50;;;;;;;23.25;14.95;;;13.40;96.40;;;;;;5069474;28;20039;-65
2021/09/06 04:12:16;;;;;;;22.02;14.15;;;13.30;96.30;;;;;;5063755;28;20036;-66
2021/09/06 04:14:42;;;;;;;23.95;14.20;;;13.30;96.30;;;;;;5061892;28;20029;-66
2021/09/06 04:17:08;;;;;;;23.60;14.30;;;13.30;96.30;;;;;;5061438;28;20025;-66
2021/09/06 04:19:34;;;;;;;25.00;14.13;;;13.30;96.30;;;;;;5044393;28;20025;-66
2021/09/06 04:22:01;;;;;;;23.55;14.02;;;13.30;96.30;;;;;;5063658;28;20036;-66
2021/09/06 04:24:27;;;;;;;22.73;13.75;;;13.30;96.40;;;;;;5061853;28;20541;-66
2021/09/06 04:26:54;;;;;;;23.25;14.30;;;13.20;96.30;;;;;;5064741;28;20033;-66
2021/09/06 04:29:19;;;;;;;20.80;13.30;;;13.30;96.30;;;;;;5063030;28;20145;-66
2021/09/06 04:31:45;;;;;;;25.45;14.98;;;13.20;96.30;;;;;;5060070;28;20859;-66
2021/09/06 04:34:11;;;;;;;27.95;15.77;;;13.20;96.30;;;;;;5063686;28;20039;-65
2021/09/06 04:36:37;;;;;;;26.65;15.15;;;13.20;96.30;;;;;;5081359;28;20098;-66
2021/09/06 04:39:03;;;;;;;24.30;14.70;;;13.20;96.50;;;;;;5062221;28;20024;-64
2021/09/06 04:41:29;;;;;;;24.42;14.27;;;13.20;96.50;;;;;;5063049;28;20083;-66
2021/09/06 04:43:54;;;;;;;24.20;14.63;;;13.20;96.50;;;;;;5064182;28;20036;-67
2021/09/06 04:46:20;;;;;;;22.83;14.70;;;13.20;96.50;;;;;;5060646;28;20029;-66
2021/09/06 04:48:46;;;;;;;24.10;14.40;;;13.20;96.50;;;;;;5060070;28;20409;-66
2021/09/06 04:51:11;;;;;;;24.90;14.65;;;13.20;96.50;;;;;;5060722;28;20029;-65
2021/09/06 04:53:41;;;;;;;25.00;14.52;;;13.20;96.60;;;;;;5060196;28;20036;-66
2021/09/06 04:56:10;;;;;;;27.13;14.93;;;13.20;96.50;;;;;;5078927;28;20021;-67
2021/09/06 04:58:36;;;;;;;21.35;13.52;;;13.20;96.50;;;;;;5058964;28;20020;-66
2021/09/06 05:01:02;;;;;;;21.98;13.55;;;13.20;96.50;;;;;;5060005;28;20114;-65
2021/09/06 05:03:29;;;;;;;23.67;13.13;;;13.10;96.40;;;;;;5063681;28;20115;-64
2021/09/06 05:05:58;;;;;;;23.17;14.68;;;13.10;96.40;;;;;;5061362;28;20028;-66
2021/09/06 05:08:23;;;;;;;24.33;14.30;;;13.20;96.40;;;;;;5061079;28;20037;-66
2021/09/06 05:10:49;;;;;;;24.05;14.32;;;13.10;96.40;;;;;;5061459;28;20032;-66
2021/09/06 05:13:15;;;;;;;27.85;14.93;;;13.10;96.50;;;;;;5060225;28;20025;-66
2021/09/06 05:15:40;;;;;;;25.95;15.23;;;13.10;96.50;;;;;;5058792;28;20348;-66
2021/09/06 05:18:08;;;;;;;26.35;14.35;;;13.20;96.50;;;;;;5060002;28;20521;-66
2021/09/06 05:20:33;;;;;;;25.80;15.07;;;13.20;96.60;;;;;;5062066;28;20082;-66
2021/09/06 05:22:59;;;;;;;25.05;14.13;;;13.20;96.50;;;;;;5063040;28;20470;-66
2021/09/06 05:25:25;;;;;;;25.42;13.75;;;13.20;96.80;;;;;;5059724;28;20024;-66
2021/09/06 05:27:51;;;;;;;23.60;13.57;;;13.30;96.90;;;;;;5058827;28;20104;-66
2021/09/06 05:30:16;;;;;;;23.15;13.45;;;13.40;96.90;;;;;;5060795;28;20044;-66
2021/09/06 05:32:42;;;;;;;22.52;14.50;;;13.60;96.60;;;;;;5060277;28;20020;-66
2021/09/06 05:35:08;;;;;;;23.55;13.82;;;13.60;96.30;;;;;;5059463;28;20101;-66
2021/09/06 05:37:34;;;;;;;23.65;13.95;;;13.60;96.20;;;;;;5060698;28;20037;-67
2021/09/06 05:39:59;;;;;;;20.25;13.48;;;13.60;96.20;;;;;;5059331;28;20387;-67
2021/09/06 05:42:25;;;;;;;22.30;13.60;;;13.60;96.10;;;;;;5061457;28;20535;-66
2021/09/06 05:44:51;;;;;;;26.27;13.27;;;13.50;96.10;;;;;;5061749;28;20095;-67
2021/09/06 05:47:17;;;;;;;22.00;12.75;;;13.50;96.30;;;;;;5059699;28;20079;-68
2021/09/06 05:49:43;;;;;;;24.65;12.98;;;13.50;96.30;;;;;;5061177;28;20090;-66
2021/09/06 05:52:09;;;;;;;21.67;13.23;;;13.50;96.30;;;;;;5058780;28;20025;-67
2021/09/06 05:54:35;;;;;;;18.25;12.40;;;13.60;96.30;;;;;;5059722;28;20279;-68
2021/09/06 05:57:00;;;;;;;20.05;12.98;;;13.60;96.30;;;;;;5060581;28;20067;-67
2021/09/06 05:59:26;;;;;;;19.77;12.55;;;13.60;96.30;;;;;;5059999;28;20410;-69
2021/09/06 06:01:52;;;;;;;21.67;11.57;;;13.60;96.40;;;;;;5057047;28;20081;-67
2021/09/06 06:04:18;;;;;;;18.60;11.43;;;13.60;96.50;;;;;;5062989;28;20058;-72
2021/09/06 06:06:44;;;;;;;21.48;11.43;;;13.70;96.40;;;;;;5060583;28;20433;-73
2021/09/06 06:09:09;;;;;;;28.52;13.75;;;13.70;96.40;;;;;;5061932;28;20039;-73
2021/09/06 06:11:38;;;;;;;26.15;12.85;;;13.80;96.50;;;;;;5060214;28;20024;-74
2021/09/06 06:14:05;;;;;;;20.50;12.48;;;13.80;96.40;;;;;;5069359;28;20037;-73
2021/09/06 06:16:31;;;;;;;19.35;12.02;;;13.80;96.50;;;;;;5065116;28;20471;-72
2021/09/06 06:18:58;;;;;;;20.15;12.07;;;13.90;96.50;;;;;;5062771;28;20040;-72
2021/09/06 06:21:23;;;;;;;18.35;11.55;;;13.90;96.50;;;;;;5067256;28;20083;-73
2021/09/06 06:23:49;;;;;;;17.85;11.45;;;14.00;96.50;;;;;;5070746;28;20056;-74
2021/09/06 06:26:15;;;;;;;17.35;11.13;;;14.00;96.40;;;;;;5064892;28;20036;-74
2021/09/06 06:28:41;;;;;;;20.42;12.43;;;14.10;96.40;;;;;;5062096;28;20016;-73
2021/09/06 06:31:07;;;;;;;17.65;10.85;;;14.00;96.40;;;;;;5063154;28;20020;-72
2021/09/06 06:33:33;;;;;;;18.55;10.93;;;14.10;96.40;;;;;;5061573;28;20043;-74
2021/09/06 06:35:59;;;;;;;22.05;12.95;;;14.20;96.40;;;;;;5072086;28;20399;-74
2021/09/06 06:38:26;;;;;;;23.70;13.13;;;14.20;96.40;;;;;;5067424;28;20036;-74
2021/09/06 06:40:51;;;;;;;27.05;13.75;;;14.20;96.30;;;;;;5065595;28;20714;-74
2021/09/06 06:43:17;;;;;;;21.65;13.68;;;14.30;96.40;;;;;;5069941;28;20025;-74
2021/09/06 06:45:43;;;;;;;25.08;14.65;;;14.40;96.30;;;;;;5061783;28;20691;-73
2021/09/06 06:48:09;;;;;;;28.77;16.25;;;14.40;96.30;;;;;;5065067;28;20024;-73
2021/09/06 06:50:34;;;;;;;30.90;16.65;;;14.50;96.40;;;;;;5063796;28;20031;-73
2021/09/06 06:53:00;;;;;;;24.63;15.07;;;14.50;96.70;;;;;;5065782;28;20111;-73
2021/09/06 06:55:26;;;;;;;22.27;14.93;;;14.60;96.60;;;;;;5066361;28;20021;-73
2021/09/06 06:57:52;;;;;;;24.80;15.02;;;14.70;96.40;;;;;;5063095;28;20041;-73
2021/09/06 07:00:18;;;;;;;25.60;15.85;;;14.70;96.20;;;;;;5064556;28;20552;-73
2021/09/06 07:02:44;;;;;;;26.55;15.02;;;14.80;96.20;;;;;;5056282;28;20292;-74
2021/09/06 07:05:10;;;;;;;26.10;13.77;;;14.80;96.20;;;;;;5064608;28;20078;-68
2021/09/06 07:07:37;;;;;;;22.58;14.05;;;14.90;96.10;;;;;;5066482;28;20106;-68
2021/09/06 07:10:03;;;;;;;27.52;15.80;;;14.90;96.00;;;;;;5063896;28;20032;-68
2021/09/06 07:12:28;;;;;;;24.52;14.70;;;15.00;96.00;;;;;;5063888;28;20037;-68
2021/09/06 07:14:54;;;;;;;26.77;14.13;;;15.00;95.80;;;;;;5064211;28;20040;-69
2021/09/06 07:17:20;;;;;;;23.00;13.23;;;15.10;95.70;;;;;;5061304;28;20037;-68
2021/09/06 07:19:46;;;;;;;24.80;13.07;;;15.20;95.70;;;;;;5060612;28;20029;-67
2021/09/06 07:22:11;;;;;;;23.25;13.38;;;15.20;95.70;;;;;;5061445;28;20028;-67
2021/09/06 07:24:37;;;;;;;21.52;12.80;;;15.30;95.60;;;;;;5064661;28;20032;-68
2021/09/06 07:27:03;;;;;;;23.00;13.10;;;15.40;95.70;;;;;;5063847;28;20029;-67
2021/09/06 07:29:29;;;;;;;23.13;12.68;;;15.40;95.60;;;;;;5063561;28;20039;-67
2021/09/06 07:31:55;;;;;;;20.30;11.75;;;15.50;95.40;;;;;;5061571;28;20029;-67
2021/09/06 07:34:20;;;;;;;19.63;12.57;;;15.50;95.30;;;;;;5060863;28;20029;-68
2021/09/06 07:36:46;;;;;;;30.08;14.43;;;15.60;95.20;;;;;;5063554;28;20029;-68
2021/09/06 07:39:16;;;;;;;24.15;14.07;;;15.60;95.10;;;;;;5061622;28;20036;-66
2021/09/06 07:41:42;;;;;;;22.58;13.32;;;15.60;95.20;;;;;;5066136;28;20021;-66
2021/09/06 07:44:08;;;;;;;21.42;12.88;;;15.70;95.20;;;;;;5065873;28;20029;-66
2021/09/06 07:46:33;;;;;;;23.33;13.20;;;15.70;95.00;;;;;;5064769;28;20044;-66
2021/09/06 07:48:59;;;;;;;26.60;14.55;;;15.80;95.10;;;;;;5064601;28;20033;-66
2021/09/06 07:51:25;;;;;;;22.67;13.43;;;15.90;95.00;;;;;;5064320;28;20036;-66
2021/09/06 07:53:50;;;;;;;21.55;13.02;;;15.90;94.80;;;;;;5060909;28;20035;-66
2021/09/06 07:56:16;;;;;;;23.63;14.43;;;16.00;94.70;;;;;;5064534;28;20056;-66
2021/09/06 07:58:42;;;;;;;23.50;13.32;;;16.00;94.70;;;;;;5065071;28;20094;-66
2021/09/06 08:01:08;;;;;;;22.58;13.13;;;16.10;94.50;;;;;;5061737;28;20039;-66
2021/09/06 08:03:33;;;;;;;23.65;13.30;;;16.10;94.40;;;;;;5062936;28;20035;-66
2021/09/06 08:05:59;;;;;;;21.02;12.18;;;16.20;94.40;;;;;;5062512;28;20161;-66
2021/09/06 08:08:25;;;;;;;17.27;10.82;;;16.20;94.30;;;;;;5061165;28;20039;-66
2021/09/06 08:10:51;;;;;;;22.50;12.38;;;16.30;94.20;;;;;;5063215;28;20107;-66
2021/09/06 08:13:16;;;;;;;19.13;12.23;;;16.40;94.10;;;;;;5061492;28;20084;-66
2021/09/06 08:15:42;;;;;;;19.65;12.35;;;16.40;94.00;;;;;;5060705;28;20457;-66
2021/09/06 08:18:09;;;;;;;19.00;11.68;;;16.50;93.90;;;;;;5061163;28;20087;-67
2021/09/06 08:20:35;;;;;;;17.90;11.52;;;16.60;93.90;;;;;;5062815;28;20479;-66
2021/09/06 08:23:01;;;;;;;20.20;11.75;;;16.70;93.80;;;;;;5058839;28;20033;-66
2021/09/06 08:25:26;;;;;;;23.40;13.85;;;16.70;93.70;;;;;;5059748;28;20056;-66
2021/09/06 08:27:52;;;;;;;19.63;12.00;;;16.70;93.60;;;;;;5064731;28;20593;-66
2021/09/06 08:30:18;;;;;;;19.92;12.48;;;16.80;93.50;;;;;;5061676;28;20037;-67
2021/09/06 08:32:44;;;;;;;19.30;11.82;;;16.80;93.50;;;;;;5060524;28;20395;-67
2021/09/06 08:35:11;;;;;;;23.70;13.05;;;16.90;93.40;;;;;;5063812;28;20051;-66
2021/09/06 08:37:37;;;;;;;18.92;12.48;;;16.90;93.30;;;;;;5061634;28;20051;-66
2021/09/06 08:40:05;;;;;;;21.38;12.60;;;17.00;93.30;;;;;;5062490;28;20029;-66
2021/09/06 08:42:31;;;;;;;18.13;12.13;;;17.00;93.30;;;;;;5057624;28;20090;-66
2021/09/06 08:44:57;;;;;;;17.67;11.73;;;17.10;93.10;;;;;;5062504;28;20025;-67
2021/09/06 08:47:23;;;;;;;19.58;11.55;;;17.10;93.00;;;;;;5062975;28;20124;-67
2021/09/06 08:49:49;;;;;;;16.80;11.10;;;17.10;92.70;;;;;;5058095;28;20061;-67
2021/09/06 08:52:16;;;;;;;20.25;11.88;;;17.20;92.70;;;;;;5061118;28;20032;-66
2021/09/06 08:54:41;;;;;;;16.05;11.23;;;17.20;92.50;;;;;;5064986;28;20036;-66
2021/09/06 08:57:08;;;;;;;18.92;12.32;;;17.20;92.60;;;;;;5059752;28;20100;-67
2021/09/06 08:59:33;;;;;;;18.08;11.02;;;17.30;92.40;;;;;;5062999;28;20111;-66
2021/09/06 09:01:59;;;;;;;17.73;10.75;;;17.30;92.30;;;;;;5060929;28;20124;-66
2021/09/06 09:04:27;;;;;;;18.90;11.48;;;17.40;92.30;;;;;;5066361;28;20489;-66
2021/09/06 09:06:57;;;;;;;14.40;9.55;;;17.50;92.10;;;;;;5063680;28;20082;-66
2021/09/06 09:09:37;;;;;;;16.98;9.88;;;17.60;92.10;;;;;;5061066;28;20486;-66
2021/09/06 09:12:13;;;;;;;19.48;11.75;;;17.60;92.10;;;;;;5059943;28;20036;-66
2021/09/06 09:14:41;;;;;;;21.88;12.68;;;17.70;91.30;;;;;;5060983;28;20033;-66
2021/09/06 09:17:11;;;;;;;19.77;11.77;;;17.80;91.30;;;;;;5060211;28;20055;-66
2021/09/06 09:19:38;;;;;;;16.70;12.05;;;17.80;91.40;;;;;;5058941;28;20375;-66
2021/09/06 09:22:07;;;;;;;14.70;9.57;;;17.90;91.30;;;;;;5063157;28;20406;-66
2021/09/06 09:24:37;;;;;;;17.05;10.50;;;17.90;91.20;;;;;;5061128;28;20032;-66
2021/09/06 09:27:06;;;;;;;18.30;11.25;;;17.90;90.90;;;;;;5060652;28;20254;-66
2021/09/06 09:29:32;;;;;;;16.85;11.10;;;18.00;90.70;;;;;;5059865;28;20154;-66
2021/09/06 09:32:04;;;;;;;18.13;10.73;;;18.10;90.50;;;;;;5059561;28;20028;-66
2021/09/06 09:34:31;;;;;;;16.65;9.80;;;18.20;90.60;;;;;;5060266;28;20524;-66
2021/09/06 09:36:58;;;;;;;16.85;9.25;;;18.30;90.50;;;;;;5063037;28;20068;-66
2021/09/06 09:39:24;;;;;;;13.48;9.75;;;18.40;90.50;;;;;;5058759;28;20059;-65
2021/09/06 09:42:04;;;;;;;14.38;8.90;;;18.50;90.40;;;;;;5060927;28;20448;-66
2021/09/06 09:44:29;;;;;;;12.32;8.95;;;18.60;90.20;;;;;;5059090;28;20059;-66
2021/09/06 09:47:03;;;;;;;17.42;10.55;;;18.70;90.00;;;;;;5057732;28;20032;-66
2021/09/06 09:49:33;;;;;;;13.80;8.43;;;18.80;88.50;;;;;;5059808;28;20724;-66
2021/09/06 09:51:59;;;;;;;14.40;9.07;;;19.00;88.60;;;;;;5059220;28;20107;-66
2021/09/06 09:54:24;;;;;;;13.13;8.45;;;19.20;88.40;;;;;;5061419;28;20505;-66
2021/09/06 09:56:50;;;;;;;14.48;9.73;;;19.30;87.80;;;;;;5061347;28;20052;-66
2021/09/06 09:59:18;;;;;;;16.33;10.57;;;19.40;87.20;;;;;;5060637;28;20055;-66
2021/09/06 10:01:59;;;;;;;14.63;9.23;;;19.40;84.30;;;;;;5058622;28;20029;-66
2021/09/06 10:04:28;;;;;;;13.82;9.18;;;19.40;85.80;;;;;;5059422;28;20120;-66
2021/09/06 10:06:56;;;;;;;14.02;9.30;;;19.50;86.10;;;;;;5062411;28;20035;-66
2021/09/06 10:09:22;;;;;;;15.60;9.65;;;19.50;86.30;;;;;;5056491;28;20040;-66
2021/09/06 10:11:48;;;;;;;12.05;8.85;;;19.50;86.20;;;;;;5057904;28;20431;-66
2021/09/06 10:14:22;;;;;;;15.00;9.15;;;19.60;85.80;;;;;;5062313;28;20521;-66
2021/09/06 10:17:04;;;;;;;13.15;8.68;;;19.60;85.70;;;;;;5064256;28;20041;-66
2021/09/06 10:19:41;;;;;;;13.85;9.63;;;19.60;84.20;;;;;;5061675;28;20364;-66
2021/09/06 10:22:20;;;;;;;16.30;8.60;;;19.70;84.90;;;;;;5062869;28;20032;-66
2021/09/06 10:24:57;;;;;;;14.98;9.23;;;19.70;85.00;;;;;;5084672;28;20505;-66
2021/09/06 10:27:23;;;;;;;15.10;9.02;;;19.70;83.40;;;;;;5063431;28;20037;-66
2021/09/06 10:29:59;;;;;;;16.17;9.57;;;19.80;84.10;;;;;;5064402;28;20043;-66
2021/09/06 10:32:35;;;;;;;12.57;9.40;;;19.90;83.00;;;;;;5062433;28;20036;-66
2021/09/06 10:35:06;;;;;;;13.95;9.25;;;20.00;83.80;;;;;;5045586;28;20033;-66
2021/09/06 10:37:35;;;;;;;;;;;20.00;82.90;;;;;;5062088;28;20512;-66
2021/09/06 10:40:02;;;;;;;12.55;8.32;;;20.00;83.90;;;;;;5061938;28;20011;-67
2021/09/06 10:42:33;;;;;;;14.05;8.82;;;20.00;84.70;;;;;;5063023;28;20041;-67
2021/09/06 10:45:01;;;;;;;11.68;8.13;;;20.10;85.00;;;;;;5062914;28;20029;-68
2021/09/06 10:47:38;;;;;;;15.90;9.77;;;20.20;84.40;;;;;;5062049;28;20033;-67
2021/09/06 10:50:14;;;;;;;11.68;8.35;;;20.20;82.80;;;;;;5063145;28;20113;-67
2021/09/06 10:52:43;;;;;;;12.73;7.70;;;20.20;83.70;;;;;;5062301;28;20036;-66
2021/09/06 10:55:09;;;;;;;11.68;8.00;;;20.30;83.60;;;;;;5061581;28;20032;-66
2021/09/06 10:57:42;;;;;;;14.55;9.15;;;20.40;83.10;;;;;;5063446;28;20039;-67
2021/09/06 11:00:18;;;;;;;13.18;8.55;;;20.40;81.80;;;;;;5060109;28;20490;-66
2021/09/06 11:02:45;;;;;;;11.75;8.32;;;20.40;82.20;;;;;;5063459;28;20103;-66
2021/09/06 11:05:22;;;;;;;14.63;8.65;;;20.60;81.80;;;;;;5065803;28;20028;-68
2021/09/06 11:07:48;;;;;;;12.45;8.18;;;20.60;80.90;;;;;;5066832;28;20085;-66
2021/09/06 11:10:19;;;;;;;12.10;8.52;;;20.90;82.60;;;;;;5062292;28;20055;-67
2021/09/06 11:12:54;;;;;;;14.57;8.43;;;21.30;81.50;;;;;;5064836;28;20406;-67
2021/09/06 11:15:31;;;;;;;20.00;8.65;;;22.20;77.80;;;;;;5064989;28;20116;-67
2021/09/06 11:18:00;;;;;;;12.10;7.65;;;23.00;75.00;;;;;;5062588;28;20127;-70
2021/09/06 11:20:28;;;;;;;12.70;8.68;;;23.30;72.70;;;;;;5062224;28;20119;-67
2021/09/06 11:22:59;;;;;;;12.07;8.35;;;24.00;71.30;;;;;;5062858;28;20032;-67
2021/09/06 11:25:26;;;;;;;11.93;8.63;;;25.00;67.80;;;;;;5059444;28;20036;-67
2021/09/06 11:27:53;;;;;;;12.85;8.25;;;25.30;62.10;;;;;;5057592;28;20039;-67
2021/09/06 11:30:23;;;;;;;11.02;7.68;;;25.40;63.90;;;;;;5059122;28;20054;-66
2021/09/06 11:32:50;;;;;;;11.00;7.78;;;26.40;60.70;;;;;;5062650;28;20099;-66
2021/09/06 11:35:19;;;;;;;11.57;8.38;;;27.60;59.00;;;;;;5063627;28;20093;-66
2021/09/06 11:37:44;;;;;;;11.27;7.75;;;28.50;56.00;;;;;;5064739;28;20072;-66
2021/09/06 11:40:11;;;;;;;10.93;8.77;;;28.20;52.90;;;;;;5064812;28;20068;-67
2021/09/06 11:42:37;;;;;;;9.30;7.78;;;27.50;53.70;;;;;;5063065;28;20450;-69
2021/09/06 11:45:04;;;;;;;11.27;7.72;;;26.50;54.90;;;;;;5061002;28;20033;-68
2021/09/06 11:47:31;;;;;;;12.68;8.68;;;25.90;57.40;;;;;;5062601;28;20032;-68
2021/09/06 11:49:59;;;;;;;14.80;9.27;;;25.20;59.20;;;;;;5062251;28;20060;-67
2021/09/06 11:52:33;;;;;;;12.38;8.30;;;24.40;59.20;;;;;;5062162;28;20041;-67
2021/09/06 11:54:59;;;;;;;12.02;8.60;;;23.70;60.60;;;;;;5063948;28;20029;-67
2021/09/06 11:57:27;;;;;;;12.95;9.38;;;23.20;62.30;;;;;;5064817;28;20048;-68
2021/09/06 11:59:54;;;;;;;16.05;9.63;;;23.10;64.00;;;;;;5066258;28;20036;-68
2021/09/06 12:02:21;;;;;;;13.93;8.68;;;23.20;61.80;;;;;;5063320;28;20391;-68
2021/09/06 12:04:48;;;;;;;12.23;8.15;;;23.50;62.20;;;;;;5060578;28;20032;-68
2021/09/06 12:07:18;;;;;;;11.05;8.38;;;23.80;62.20;;;;;;5061563;28;20055;-68
2021/09/06 12:09:48;;;;;;;11.02;7.97;;;23.90;62.70;;;;;;5064027;28;20047;-68
2021/09/06 12:12:22;;;;;;;12.77;8.75;;;23.90;62.90;;;;;;5061299;28;20128;-68
2021/09/06 12:14:49;;;;;;;12.30;9.02;;;23.70;61.80;;;;;;5062711;28;20082;-68
2021/09/06 12:17:15;;;;;;;13.82;9.43;;;23.60;62.60;;;;;;5062182;28;20418;-68
2021/09/06 12:19:46;;;;;;;12.27;8.13;;;23.40;62.20;;;;;;5062526;28;20037;-68
2021/09/06 12:22:20;;;;;;;15.10;9.90;;;23.60;63.20;;;;;;5063035;28;20028;-69
2021/09/06 12:24:48;;;;;;;13.38;8.25;;;24.10;62.30;;;;;;5063583;28;20043;-72
2021/09/06 12:27:18;;;;;;;14.45;9.18;;;24.60;61.80;;;;;;5063744;28;20028;-68
2021/09/06 12:29:44;;;;;;;12.43;8.03;;;24.70;58.90;;;;;;5062766;28;20121;-69